KECS/ECS METAR and TAF weather

Enter ICAO airport designator
Station Type Date Time Source
KECS METAR 2018/04/19 12:50 UTC NOAA

KECS 191250Z AUTO 12009KT 10SM CLR 03/M02 A3031 RMK AO2


Station Type Date Time Source
KECS Decoded METAR 2018/04/19 12:50 UTC NOAA

Station name not available
Apr 19, 2018 - 08:50 AM EDT / 2018.04.19 1250 UTC
Wind: from the ESE (120 degrees) at 10 MPH (9 KT):0
Visibility: 10 mile(s):0
Sky conditions: clear
Temperature: 37 F (3 C)
Dew Point: 28 F (-2 C)
Relative Humidity: 69%
Pressure (altimeter): 30.31 in. Hg (1026 hPa)
ob: KECS 191250Z AUTO 12009KT 10SM CLR 03/M02 A3031 RMK AO2
cycle: 13

Station Type Date Time Source
KECS TAF UTC NOAA

Error!


Example: see airport list